EKVG

Vagar Airport

Vagar, Denmark
METAR EKVG 181950Z AUTO 19005KT 0400NDV R12/1100N R30/1200N FG VV003 08/08 Q1010
Observed Flight Rules
Dec-18 @ 19:50 UTC (38 minutes ago) Instrument Flight Rules
Wind Visibility Clouds Conditions
190° at 5 knots 1,094 meters
  • Vertical visibility at 300' AGL
  • Fog
Temperatures Readings
Current 8°C / 46°F
Dewpoint 8°C / 46°F
Humidity 100%
Altimeter 29.82" Hg
Pressure 1010 hPa
Elevation 85
METAR EKVG 181950Z AUTO 19005KT 0400NDV R12/1100N R30/1200N FG VV003 08/08 Q1010
Observed Flight Rules
Dec-18 @ 19:50 UTC
(38 minutes ago)
LIFR
Wind Visibility
190° at 5 knots 1,094 meters
Clouds
  • Vertical visibility at 300' AGL
Conditions
  • Fog
Temperature Dewpoint
8°C / 46°F 8°C / 46°F
Humidity Altimeter Pressure
100% 29.82" Hg 1010 hPa